Time;durP1;ratioP1;P1;durP2;ratioP2;P2;SDS_P1;SDS_P2;PMS_P1;PMS_P2;Temp;Humidity;BMP_temperature;BMP_pressure;BME280_temperature;BME280_humidity;BME280_pressure;Samples;Min_cycle;Max_cycle;Signal;HPM_P1;HPM_P2
2023/11/05 00:01:29;;;;;;;3.90;1.50;;;;;;;7.48;100.00;96822.69;4970543;28;20419;-72
2023/11/05 00:03:54;;;;;;;;;;;;;;;7.52;100.00;96837.91;4969737;28;20035;-72
2023/11/05 00:06:20;;;;;;;2.67;1.60;;;;;;;7.49;100.00;96817.16;4963263;28;20398;-73
2023/11/05 00:08:45;;;;;;;4.90;1.87;;;;;;;7.73;100.00;96849.69;4962058;28;20042;-73
2023/11/05 00:11:10;;;;;;;3.13;1.37;;;;;;;7.63;100.00;96833.56;4969270;28;20500;-73
2023/11/05 00:13:36;;;;;;;2.57;1.53;;;;;;;7.65;100.00;96830.69;4970432;28;20582;-73
2023/11/05 00:16:01;;;;;;;2.57;1.50;;;;;;;7.66;100.00;96829.66;4970380;28;20359;-73
2023/11/05 00:18:26;;;;;;;2.50;1.83;;;;;;;7.69;100.00;96802.59;4966085;28;20035;-72
2023/11/05 00:20:54;;;;;;;6.20;1.30;;;;;;;7.74;100.00;96819.41;4953176;28;20049;-73
2023/11/05 00:23:19;;;;;;;1.85;1.50;;;;;;;7.65;100.00;96817.41;4970686;28;20376;-74
2023/11/05 00:25:44;;;;;;;2.47;1.40;;;;;;;7.63;100.00;96817.63;4985341;28;20117;-72
2023/11/05 00:28:10;;;;;;;3.70;1.50;;;;;;;7.69;100.00;96821.19;4985254;28;20381;-73
2023/11/05 00:30:35;;;;;;;4.90;1.40;;;;;;;7.68;100.00;96808.94;4961840;28;20071;-72
2023/11/05 00:33:01;;;;;;;2.10;1.35;;;;;;;7.73;100.00;96814.38;4952187;28;20047;-73
2023/11/05 00:35:26;;;;;;;3.80;1.47;;;;;;;7.80;100.00;96828.28;4985379;28;20108;-73
2023/11/05 00:37:51;;;;;;;1.70;1.40;;;;;;;7.86;100.00;96824.66;4968784;28;20476;-74
2023/11/05 00:40:17;;;;;;;6.20;2.37;;;;;;;7.86;100.00;96813.22;4969059;28;20118;-73
2023/11/05 00:42:42;;;;;;;1.30;1.20;;;;;;;7.90;100.00;96795.78;4968774;28;20026;-73
2023/11/05 00:45:08;;;;;;;2.10;1.67;;;;;;;7.89;100.00;96778.22;4969056;28;20498;-73
2023/11/05 00:47:34;;;;;;;2.00;1.42;;;;;;;7.75;100.00;96761.81;4968193;28;20096;-73
2023/11/05 00:49:59;;;;;;;2.10;1.17;;;;;;;7.93;100.00;96788.13;4983596;28;20050;-73
2023/11/05 00:52:25;;;;;;;2.43;1.60;;;;;;;7.94;100.00;96763.19;4964449;28;20574;-72
2023/11/05 00:54:51;;;;;;;2.33;1.65;;;;;;;7.78;100.00;96756.03;4967664;28;20051;-73
2023/11/05 00:57:17;;;;;;;4.43;1.53;;;;;;;7.81;100.00;96760.84;4968508;28;20033;-73
2023/11/05 00:59:43;;;;;;;2.78;1.52;;;;;;;7.74;100.00;96760.22;4968501;28;20088;-72
2023/11/05 01:02:08;;;;;;;3.45;1.58;;;;;;;7.82;100.00;96781.06;4965358;28;20027;-74
2023/11/05 01:04:33;;;;;;;2.40;1.20;;;;;;;7.84;100.00;96781.59;4968838;28;20415;-73
2023/11/05 01:06:59;;;;;;;2.47;1.43;;;;;;;7.77;100.00;96771.16;4969594;28;20055;-73
2023/11/05 01:09:24;;;;;;;2.37;1.27;;;;;;;7.79;100.00;96790.28;4965408;28;20046;-73
2023/11/05 01:11:50;;;;;;;1.85;1.25;;;;;;;7.76;100.00;96784.66;4968272;28;20027;-73
2023/11/05 01:14:15;;;;;;;3.15;1.48;;;;;;;7.86;100.00;96808.72;4968415;28;20428;-73
2023/11/05 01:16:41;;;;;;;2.10;1.30;;;;;;;7.87;100.00;96793.63;4969638;28;20138;-74
2023/11/05 01:19:06;;;;;;;1.93;1.30;;;;;;;7.75;100.00;96802.47;4984586;28;20446;-73
2023/11/05 01:21:32;;;;;;;1.48;1.20;;;;;;;7.90;100.00;96838.28;4964006;28;20054;-72
2023/11/05 01:23:57;;;;;;;4.13;1.27;;;;;;;7.93;100.00;96829.81;4960738;28;20492;-73
2023/11/05 01:26:22;;;;;;;2.57;1.00;;;;;;;7.92;100.00;96821.03;4952390;28;20029;-73
2023/11/05 01:28:48;;;;;;;1.60;1.23;;;;;;;7.91;100.00;96830.03;4968003;28;20015;-73
2023/11/05 01:31:15;;;;;;;1.92;1.33;;;;;;;7.99;100.00;96837.63;4984499;28;20503;-73
2023/11/05 01:33:40;;;;;;;1.80;1.33;;;;;;;7.95;100.00;96823.22;4963549;28;20046;-73
2023/11/05 01:36:06;;;;;;;1.88;1.20;;;;;;;7.91;100.00;96839.88;4968078;28;20019;-73
2023/11/05 01:38:31;;;;;;;11.40;1.50;;;;;;;7.91;100.00;96875.19;4968142;28;20026;-72
2023/11/05 01:40:57;;;;;;;2.03;1.30;;;;;;;7.92;100.00;96906.03;4967836;28;20034;-73
2023/11/05 01:43:22;;;;;;;1.47;1.00;;;;;;;7.72;100.00;96921.59;4968205;28;20031;-73
2023/11/05 01:45:48;;;;;;;2.23;1.50;;;;;;;7.74;100.00;96980.59;4967961;28;20277;-72
2023/11/05 01:48:13;;;;;;;1.97;1.30;;;;;;;7.60;100.00;96988.81;4983934;28;20105;-73
2023/11/05 01:50:40;;;;;;;1.40;1.30;;;;;;;7.53;100.00;97006.72;4948557;28;20037;-74
2023/11/05 01:53:06;;;;;;;4.00;1.83;;;;;;;7.53;100.00;97029.81;4964398;28;20286;-73
2023/11/05 01:55:33;;;;;;;3.72;1.83;;;;;;;7.53;100.00;97035.13;4948587;28;20038;-74
2023/11/05 01:57:58;;;;;;;2.47;1.63;;;;;;;7.40;100.00;97025.56;4978890;28;20071;-74
2023/11/05 02:00:24;;;;;;;2.78;1.73;;;;;;;7.44;100.00;97034.66;4983949;28;20035;-73
2023/11/05 02:02:51;;;;;;;3.47;1.77;;;;;;;7.44;100.00;97026.69;4951759;28;20666;-73
2023/11/05 02:05:16;;;;;;;2.08;1.45;;;;;;;7.40;100.00;97023.72;4984112;28;20114;-72
2023/11/05 02:07:43;;;;;;;4.03;2.17;;;;;;;7.55;100.00;97033.84;4983826;28;20122;-73
2023/11/05 02:10:09;;;;;;;4.45;1.60;;;;;;;7.33;100.00;97016.94;4959853;28;20023;-72
2023/11/05 02:12:35;;;;;;;2.28;1.60;;;;;;;7.21;100.00;97003.66;4967574;28;20137;-73
2023/11/05 02:15:00;;;;;;;1.67;1.25;;;;;;;7.27;100.00;97026.59;4975104;28;20076;-72
2023/11/05 02:17:25;;;;;;;1.87;1.57;;;;;;;7.33;100.00;97035.50;4983812;28;20036;-74
2023/11/05 02:19:51;;;;;;;2.90;1.10;;;;;;;7.57;100.00;97039.72;4951342;28;20026;-74
2023/11/05 02:22:20;;;;;;;3.17;1.40;;;;;;;7.40;100.00;97015.75;4951906;28;20030;-73
2023/11/05 02:24:46;;;;;;;3.05;1.73;;;;;;;7.37;100.00;97008.25;4980914;28;20026;-74
2023/11/05 02:27:12;;;;;;;3.53;1.85;;;;;;;7.35;100.00;97025.44;4983765;28;20037;-75
2023/11/05 02:29:39;;;;;;;2.10;1.88;;;;;;;7.36;100.00;97037.69;4967636;28;20109;-76
2023/11/05 02:32:06;;;;;;;4.03;1.58;;;;;;;7.27;100.00;97031.91;4967249;28;20445;-76
2023/11/05 02:34:32;;;;;;;2.28;1.70;;;;;;;7.21;100.00;97032.84;4967921;28;20456;-77
2023/11/05 02:36:58;;;;;;;4.75;1.98;;;;;;;7.13;100.00;97036.63;4968128;28;20114;-76
2023/11/05 02:39:23;;;;;;;3.67;2.40;;;;;;;7.02;100.00;97045.41;4968823;28;20549;-76
2023/11/05 02:41:48;;;;;;;4.23;2.00;;;;;;;7.23;100.00;97056.47;4968736;28;20066;-77
2023/11/05 02:44:14;;;;;;;3.97;2.33;;;;;;;7.05;100.00;97037.00;4952852;28;20117;-78
2023/11/05 02:46:39;;;;;;;3.53;1.80;;;;;;;7.26;100.00;97048.06;4952590;28;20213;-76
2023/11/05 02:49:08;;;;;;;4.17;2.10;;;;;;;7.26;100.00;97040.91;4983898;28;20026;-76
2023/11/05 02:51:34;;;;;;;2.90;2.28;;;;;;;7.18;100.00;97028.78;4968380;28;20790;-75
2023/11/05 02:53:59;;;;;;;8.98;2.50;;;;;;;7.26;100.00;97029.47;4984525;28;20076;-78
2023/11/05 02:56:25;;;;;;;4.73;2.40;;;;;;;7.10;100.00;97021.19;4975003;28;20035;-77
2023/11/05 02:58:50;;;;;;;8.18;2.17;;;;;;;7.17;100.00;97023.72;4951521;28;20035;-76
2023/11/05 03:01:24;;;;;;;3.90;2.47;;;;;;;7.06;100.00;97020.03;4984180;28;20376;-76
2023/11/05 03:03:51;;;;;;;2.63;2.03;;;;;;;7.23;100.00;97029.94;4967990;28;20031;-75
2023/11/05 03:06:17;;;;;;;3.83;2.28;;;;;;;7.29;100.00;97018.41;4984604;28;20030;-77
2023/11/05 03:08:43;;;;;;;3.30;2.00;;;;;;;7.34;100.00;97014.03;4967854;28;20035;-78
2023/11/05 03:11:08;;;;;;;3.63;2.30;;;;;;;7.33;100.00;97016.94;4967995;28;20031;-78
2023/11/05 03:13:33;;;;;;;3.10;1.73;;;;;;;7.35;100.00;97023.59;4969245;28;20035;-75
2023/11/05 03:15:59;;;;;;;4.78;2.35;;;;;;;7.35;100.00;97012.16;4968192;28;20038;-74
2023/11/05 03:18:26;;;;;;;3.93;1.90;;;;;;;7.24;100.00;97013.00;4951952;28;20030;-78
2023/11/05 03:20:52;;;;;;;4.63;2.33;;;;;;;7.29;100.00;97021.88;4951557;28;20080;-77
2023/11/05 03:23:18;;;;;;;4.10;2.00;;;;;;;7.03;100.00;97012.56;4984578;28;20035;-76
2023/11/05 03:25:44;;;;;;;;;;;;;;;7.17;100.00;97011.28;4968654;28;20034;-75
2023/11/05 03:28:09;;;;;;;4.28;3.28;;;;;;;7.05;100.00;97013.13;4951673;28;20300;-77
2023/11/05 03:30:34;;;;;;;4.37;2.17;;;;;;;7.26;100.00;97024.16;4964599;28;20039;-77
2023/11/05 03:33:00;;;;;;;3.30;2.30;;;;;;;7.28;100.00;97011.47;4955301;28;20878;-76
2023/11/05 03:35:25;;;;;;;6.03;2.20;;;;;;;7.35;100.00;97002.38;4983422;28;20499;-76
2023/11/05 03:37:51;;;;;;;3.50;2.30;;;;;;;7.20;100.00;96994.09;4966976;28;20065;-76
2023/11/05 03:40:16;;;;;;;5.07;2.55;;;;;;;7.35;100.00;97006.84;4983033;28;20096;-76
2023/11/05 03:42:42;;;;;;;3.90;2.55;;;;;;;7.37;100.00;96997.66;4968528;28;20023;-74
2023/11/05 03:45:07;;;;;;;3.03;2.63;;;;;;;7.34;100.00;96992.78;4968933;28;20034;-76
2023/11/05 03:47:33;;;;;;;4.32;3.42;;;;;;;7.16;100.00;96996.41;4953673;28;20480;-77
2023/11/05 03:49:58;;;;;;;5.40;2.93;;;;;;;7.15;100.00;97002.72;4953735;28;20039;-75
2023/11/05 03:52:24;;;;;;;5.17;2.77;;;;;;;7.24;100.00;97002.41;4970329;28;20038;-76
2023/11/05 03:54:51;;;;;;;3.40;2.70;;;;;;;7.25;100.00;96993.38;4954057;28;20034;-76
2023/11/05 03:57:16;;;;;;;6.18;2.90;;;;;;;7.33;100.00;97003.66;4970999;28;20095;-76
2023/11/05 03:59:41;;;;;;;5.97;3.30;;;;;;;7.32;100.00;97002.03;4970045;28;20023;-76
2023/11/05 04:02:07;;;;;;;4.53;2.63;;;;;;;7.30;100.00;96999.59;4985998;28;20035;-77
2023/11/05 04:04:32;;;;;;;7.43;2.90;;;;;;;7.47;100.00;97004.19;4971363;28;20394;-76
2023/11/05 04:06:58;;;;;;;4.60;2.47;;;;;;;7.54;100.00;96994.28;4985796;28;20557;-77
2023/11/05 04:09:23;;;;;;;5.53;2.70;;;;;;;7.45;100.00;96987.72;4969902;28;20031;-76
2023/11/05 04:11:48;;;;;;;9.37;3.93;;;;;;;7.37;100.00;96986.22;4953562;28;20038;-76
2023/11/05 04:14:14;;;;;;;4.03;2.93;;;;;;;7.35;100.00;96977.66;4965893;28;20445;-77
2023/11/05 04:16:39;;;;;;;4.43;3.07;;;;;;;7.34;100.00;96984.03;4969881;28;20419;-77
2023/11/05 04:19:04;;;;;;;4.20;2.87;;;;;;;7.33;100.00;96987.72;4969806;28;20046;-75
2023/11/05 04:21:30;;;;;;;3.47;2.77;;;;;;;7.37;100.00;96979.06;4977132;28;20088;-77
2023/11/05 04:23:55;;;;;;;4.75;2.30;;;;;;;7.44;100.00;96992.19;4967684;28;20031;-77
2023/11/05 04:26:21;;;;;;;5.07;2.50;;;;;;;7.43;100.00;96979.19;4969871;28;20115;-75
2023/11/05 04:28:46;;;;;;;4.70;3.17;;;;;;;7.44;100.00;96986.09;4969737;28;20114;-76
2023/11/05 04:31:12;;;;;;;4.60;3.00;;;;;;;7.41;100.00;96974.09;4970819;28;20034;-77
2023/11/05 04:33:37;;;;;;;4.35;3.35;;;;;;;7.44;100.00;96981.56;4970669;28;20459;-76
2023/11/05 04:36:03;;;;;;;3.33;2.87;;;;;;;7.31;100.00;96969.38;4970763;28;20411;-77
2023/11/05 04:38:28;;;;;;;7.55;3.33;;;;;;;7.32;100.00;96980.78;4970913;28;20051;-77
2023/11/05 04:40:54;;;;;;;5.90;3.77;;;;;;;7.44;100.00;96984.22;4971789;28;20034;-78
2023/11/05 04:43:19;;;;;;;7.87;4.03;;;;;;;7.54;100.00;96983.66;4970984;28;20031;-76
2023/11/05 04:45:44;;;;;;;4.73;3.13;;;;;;;7.65;100.00;96980.13;4954776;28;20031;-75
2023/11/05 04:48:11;;;;;;;6.13;3.55;;;;;;;7.55;100.00;96980.75;4970065;28;20079;-78
2023/11/05 04:50:36;;;;;;;6.05;3.85;;;;;;;7.59;100.00;96976.59;4986644;28;20023;-78
2023/11/05 04:53:02;;;;;;;6.47;3.55;;;;;;;7.59;100.00;96978.44;4986633;28;20038;-78
2023/11/05 04:55:29;;;;;;;3.92;3.17;;;;;;;7.55;100.00;96975.44;4970884;28;20062;-78
2023/11/05 04:57:55;;;;;;;6.07;4.30;;;;;;;7.63;100.00;96990.19;4971528;28;20198;-78
2023/11/05 05:00:20;;;;;;;4.22;3.15;;;;;;;7.69;100.00;96969.88;4987202;28;20022;-78
2023/11/05 05:02:46;;;;;;;6.38;3.58;;;;;;;7.79;100.00;96980.66;4954458;28;20057;-78
2023/11/05 05:05:12;;;;;;;3.42;3.13;;;;;;;7.62;100.00;96972.66;4986821;28;20041;-76
2023/11/05 05:07:37;;;;;;;4.37;2.93;;;;;;;7.57;100.00;96967.25;4986410;28;20039;-75
2023/11/05 05:10:03;;;;;;;6.23;3.40;;;;;;;7.51;100.00;96961.00;4986647;28;20293;-78
2023/11/05 05:12:29;;;;;;;8.00;3.22;;;;;;;7.69;100.00;96981.28;4970302;28;20298;-77
2023/11/05 05:14:54;;;;;;;5.30;2.93;;;;;;;7.68;100.00;96977.03;4954472;28;20027;-78
2023/11/05 05:17:19;;;;;;;5.90;2.90;;;;;;;7.65;100.00;96968.72;4986334;28;20035;-78
2023/11/05 05:19:48;;;;;;;4.43;3.10;;;;;;;7.69;100.00;96969.88;4986881;28;20278;-76
2023/11/05 05:22:13;;;;;;;6.15;3.20;;;;;;;7.70;100.00;96968.81;4970411;28;20022;-77
2023/11/05 05:24:40;;;;;;;5.50;3.03;;;;;;;7.66;100.00;96965.84;4970222;28;20538;-76
2023/11/05 05:27:06;;;;;;;4.18;2.63;;;;;;;7.67;100.00;96974.59;4969296;28;20658;-77
2023/11/05 05:29:31;;;;;;;4.37;2.90;;;;;;;7.76;100.00;96975.84;4969512;28;20029;-77
2023/11/05 05:31:56;;;;;;;6.93;3.30;;;;;;;7.50;100.00;96959.41;4969287;28;20031;-77
2023/11/05 05:34:22;;;;;;;7.27;3.10;;;;;;;7.48;100.00;96966.00;4953354;28;20463;-77
2023/11/05 05:36:47;;;;;;;3.53;2.70;;;;;;;7.52;100.00;96970.59;4968992;28;20491;-74
2023/11/05 05:39:12;;;;;;;4.93;3.07;;;;;;;7.65;100.00;96968.72;4968203;28;20285;-74
2023/11/05 05:41:38;;;;;;;6.23;2.93;;;;;;;7.68;100.00;96976.19;4952221;28;20038;-74
2023/11/05 05:44:04;;;;;;;5.90;2.70;;;;;;;7.59;100.00;96971.28;4952035;28;20043;-74
2023/11/05 05:46:30;;;;;;;4.63;2.67;;;;;;;7.81;100.00;96982.03;4971820;28;20029;-74
2023/11/05 05:48:55;;;;;;;7.33;3.73;;;;;;;7.75;100.00;96971.56;4968115;28;20035;-74
2023/11/05 05:51:23;;;;;;;6.90;2.70;;;;;;;7.75;100.00;96972.38;4952134;28;20037;-74
2023/11/05 05:53:48;;;;;;;6.35;3.22;;;;;;;7.74;100.00;96969.97;4984514;28;20031;-74
2023/11/05 05:56:13;;;;;;;3.67;2.83;;;;;;;7.61;100.00;96965.75;4967889;28;20065;-74
2023/11/05 05:58:39;;;;;;;4.87;2.73;;;;;;;7.63;100.00;96974.25;4969164;28;20050;-74
2023/11/05 06:01:04;;;;;;;5.37;4.20;;;;;;;7.60;100.00;96972.88;4984111;28;20039;-74
2023/11/05 06:03:30;;;;;;;7.22;3.20;;;;;;;7.66;100.00;96975.66;4968142;28;20019;-75
2023/11/05 06:05:57;;;;;;;5.30;3.30;;;;;;;7.66;100.00;96978.31;4967645;28;20039;-73
2023/11/05 06:08:22;;;;;;;4.60;3.08;;;;;;;7.71;100.00;96995.13;4950813;28;20018;-75
2023/11/05 06:10:48;;;;;;;5.23;2.90;;;;;;;7.67;100.00;96980.72;4984014;28;20043;-74
2023/11/05 06:13:13;;;;;;;3.77;2.83;;;;;;;7.68;100.00;96990.31;4967693;28;20043;-74
2023/11/05 06:15:38;;;;;;;4.03;2.67;;;;;;;7.85;100.00;96978.94;4967835;28;20026;-75
2023/11/05 06:18:04;;;;;;;5.70;3.10;;;;;;;7.73;100.00;96985.09;4983494;28;20089;-75
2023/11/05 06:20:29;;;;;;;9.82;2.65;;;;;;;7.90;100.00;96990.44;4968967;28;20407;-74
2023/11/05 06:22:55;;;;;;;4.53;2.40;;;;;;;7.90;100.00;96971.84;4967513;28;20030;-74
2023/11/05 06:25:21;;;;;;;3.92;2.72;;;;;;;7.80;100.00;96966.38;4976458;28;20097;-74
2023/11/05 06:27:46;;;;;;;3.80;2.70;;;;;;;7.84;100.00;96978.09;4983352;28;20038;-74
2023/11/05 06:30:14;;;;;;;6.57;2.83;;;;;;;7.75;100.00;96972.38;4951197;28;20361;-74
2023/11/05 06:32:40;;;;;;;4.00;2.45;;;;;;;7.85;100.00;96974.44;4967398;28;20038;-74
2023/11/05 06:35:07;;;;;;;4.38;2.30;;;;;;;7.82;100.00;96972.25;4980691;28;20030;-74
2023/11/05 06:37:32;;;;;;;5.18;2.42;;;;;;;7.87;100.00;96969.69;4967114;28;20126;-75
2023/11/05 06:39:58;;;;;;;3.65;2.50;;;;;;;7.91;100.00;96968.16;4950861;28;20582;-74
2023/11/05 06:42:23;;;;;;;4.68;2.42;;;;;;;7.87;100.00;96977.66;4968067;28;20080;-73
2023/11/05 06:44:49;;;;;;;12.15;3.50;;;;;;;8.00;100.00;96976.53;4968756;28;20475;-74
2023/11/05 06:47:14;;;;;;;5.05;2.38;;;;;;;7.87;100.00;96968.88;4966954;28;20078;-74
2023/11/05 06:49:40;;;;;;;3.67;2.33;;;;;;;8.07;100.00;96971.09;4968561;28;20070;-74
2023/11/05 06:52:05;;;;;;;3.17;1.90;;;;;;;7.75;100.00;96968.91;4950679;28;20282;-73
2023/11/05 06:54:31;;;;;;;4.30;2.30;;;;;;;7.93;100.00;96975.88;4974031;28;20035;-73
2023/11/05 06:56:57;;;;;;;5.65;2.80;;;;;;;7.99;100.00;96977.59;4964141;28;20499;-73
2023/11/05 06:59:23;;;;;;;3.90;1.92;;;;;;;8.08;100.00;96978.00;4983377;28;20117;-74
2023/11/05 07:01:49;;;;;;;5.70;2.22;;;;;;;8.20;100.00;96978.78;4968292;28;20487;-74
2023/11/05 07:04:15;;;;;;;3.95;1.90;;;;;;;8.06;100.00;96958.88;4966712;28;20021;-74
2023/11/05 07:06:40;;;;;;;9.20;2.70;;;;;;;7.92;100.00;96963.66;4961944;28;20035;-74
2023/11/05 07:09:08;;;;;;;3.97;2.33;;;;;;;8.03;100.00;96973.44;4966877;28;20125;-73
2023/11/05 07:11:34;;;;;;;7.82;2.42;;;;;;;8.08;100.00;96973.53;4983152;28;20644;-74
2023/11/05 07:14:00;;;;;;;3.03;2.30;;;;;;;8.13;100.00;96967.50;4966807;28;20023;-73
2023/11/05 07:16:26;;;;;;;4.80;2.47;;;;;;;8.21;100.00;96967.88;4966916;28;20037;-74
2023/11/05 07:18:52;;;;;;;6.15;2.25;;;;;;;8.15;100.00;96965.41;4968664;28;20284;-74
2023/11/05 07:21:17;;;;;;;6.57;2.42;;;;;;;8.07;100.00;96963.13;4971504;28;20117;-74
2023/11/05 07:23:43;;;;;;;4.93;2.20;;;;;;;8.14;100.00;96961.94;4971522;28;20027;-73
2023/11/05 07:26:26;;;;;;;3.13;1.92;;;;;;;8.18;100.00;96959.59;4984547;28;20639;-74
2023/11/05 07:29:12;;;;;;;4.57;2.03;;;;;;;8.31;100.00;96969.94;4971334;28;20054;-73
2023/11/05 07:31:37;;;;;;;8.88;3.13;;;;;;;8.30;100.00;96955.03;4971404;28;20510;-74
2023/11/05 07:34:03;;;;;;;7.95;2.35;;;;;;;8.27;100.00;96952.84;4971090;28;20105;-73
2023/11/05 07:36:28;;;;;;;9.15;3.10;;;;;;;8.23;100.00;96949.06;4979242;28;20026;-75
2023/11/05 07:38:54;;;;;;;3.13;2.13;;;;;;;8.31;100.00;96956.66;4969692;28;20411;-74
2023/11/05 07:41:19;;;;;;;5.27;2.40;;;;;;;8.42;100.00;96955.78;4970015;28;20106;-73
2023/11/05 07:43:45;;;;;;;5.30;3.03;;;;;;;8.30;100.00;96952.38;4971099;28;20039;-73
2023/11/05 07:46:10;;;;;;;3.40;2.35;;;;;;;8.50;100.00;96967.88;4969826;28;20406;-73
2023/11/05 07:48:36;;;;;;;4.60;1.70;;;;;;;8.70;100.00;96964.72;4953579;28;20019;-74
2023/11/05 07:51:02;;;;;;;11.57;2.40;;;;;;;8.84;100.00;96971.31;4969279;28;20384;-74
2023/11/05 07:53:27;;;;;;;4.28;1.70;;;;;;;8.60;100.00;96945.97;4953772;28;20110;-74
2023/11/05 07:55:53;;;;;;;5.40;1.90;;;;;;;8.72;100.00;96952.00;4970942;28;20035;-74
2023/11/05 07:58:18;;;;;;;3.37;1.53;;;;;;;8.91;100.00;96959.72;4970766;28;20045;-73
2023/11/05 08:00:46;;;;;;;4.07;2.00;;;;;;;8.98;100.00;96949.72;4953567;28;20112;-74
2023/11/05 08:03:12;;;;;;;5.60;1.77;;;;;;;9.24;100.00;96956.97;4985671;28;20144;-73
2023/11/05 08:05:38;;;;;;;6.53;1.85;;;;;;;9.47;100.00;96944.50;4969776;28;20471;-74
2023/11/05 08:08:03;;;;;;;3.93;1.50;;;;;;;9.29;100.00;96916.31;4969102;28;20121;-73
2023/11/05 08:10:29;;;;;;;4.93;1.73;;;;;;;9.54;100.00;96915.81;4964612;28;20119;-73
2023/11/05 08:12:57;;;;;;;4.63;1.27;;;;;;;9.70;100.00;96914.94;4969530;28;20035;-73
2023/11/05 08:15:22;;;;;;;2.75;1.17;;;;;;;10.20;100.00;96920.22;4969447;28;20023;-74
2023/11/05 08:17:48;;;;;;;2.70;1.30;;;;;;;10.53;100.00;96903.97;4970590;28;20039;-74
2023/11/05 08:20:14;;;;;;;3.77;1.40;;;;;;;10.69;100.00;96869.41;4969072;28;20034;-73
2023/11/05 08:22:42;;;;;;;1.63;1.30;;;;;;;11.11;100.00;96841.84;4970664;28;20031;-75
2023/11/05 08:25:11;;;;;;;3.08;1.05;;;;;;;11.75;100.00;96809.44;4970532;28;20113;-74
2023/11/05 08:27:39;;;;;;;4.57;1.60;;;;;;;11.23;100.00;96710.81;4985261;28;20115;-73
2023/11/05 08:30:05;;;;;;;2.70;1.27;;;;;;;10.50;100.00;96693.81;4969704;28;20039;-73
2023/11/05 08:32:30;;;;;;;3.67;1.17;;;;;;;9.71;100.00;96740.75;4969100;28;20031;-74
2023/11/05 08:34:56;;;;;;;3.87;1.10;;;;;;;9.95;100.00;96815.00;4969055;28;20043;-74
2023/11/05 08:37:21;;;;;;;1.83;1.25;;;;;;;9.39;100.00;96802.00;4968932;28;20067;-73
2023/11/05 08:39:47;;;;;;;3.37;1.30;;;;;;;9.18;100.00;96835.56;4970308;28;20514;-74
2023/11/05 08:42:12;;;;;;;4.10;1.83;;;;;;;9.05;100.00;96873.19;4985046;28;20507;-74
2023/11/05 08:44:39;;;;;;;3.17;1.53;;;;;;;8.98;100.00;96896.50;4970084;28;20103;-73
2023/11/05 08:47:05;;;;;;;5.53;1.50;;;;;;;8.95;100.00;96921.75;4969884;28;20034;-73
2023/11/05 08:49:31;;;;;;;5.20;1.25;;;;;;;8.97;100.00;96929.50;4969999;28;20088;-73
2023/11/05 08:51:58;;;;;;;4.63;1.77;;;;;;;9.24;100.00;96946.34;4969867;28;20027;-73
2023/11/05 08:54:24;;;;;;;6.25;1.42;;;;;;;8.96;100.00;96936.66;4970207;28;20096;-73
2023/11/05 08:56:49;;;;;;;5.82;1.98;;;;;;;8.90;100.00;96936.81;4970013;28;20057;-73
2023/11/05 08:59:15;;;;;;;6.07;1.07;;;;;;;9.04;100.00;96957.53;4968062;28;20039;-73
2023/11/05 09:01:40;;;;;;;4.03;1.40;;;;;;;9.01;100.00;96955.38;4952597;28;20027;-74
2023/11/05 09:04:06;;;;;;;5.53;1.50;;;;;;;9.30;100.00;96973.84;4984628;28;20039;-73
2023/11/05 09:06:31;;;;;;;6.18;1.38;;;;;;;9.22;100.00;96977.72;4984355;28;20035;-73
2023/11/05 09:08:57;;;;;;;4.27;1.00;;;;;;;9.18;100.00;96957.19;4968282;28;20038;-74
2023/11/05 09:11:22;;;;;;;;;;;;;;;9.22;100.00;96961.75;4984831;28;20027;-74
2023/11/05 09:13:48;;;;;;;7.22;1.70;;;;;;;9.52;100.00;96968.50;4952495;28;20517;-73
2023/11/05 09:16:13;;;;;;;7.60;1.73;;;;;;;9.23;100.00;96938.63;4984349;28;20407;-74
2023/11/05 09:18:39;;;;;;;2.37;1.03;;;;;;;9.97;100.00;96986.06;4968313;28;20062;-74
2023/11/05 09:21:05;;;;;;;3.00;1.20;;;;;;;10.37;100.00;96957.44;4984489;28;20088;-73
2023/11/05 09:23:31;;;;;;;3.75;1.08;;;;;;;10.19;100.00;96879.44;4969830;28;20030;-73
2023/11/05 09:25:57;;;;;;;5.10;1.10;;;;;;;9.79;100.00;96845.25;4968365;28;20038;-74
2023/11/05 09:28:24;;;;;;;6.13;1.40;;;;;;;10.01;100.00;96883.25;4968248;28;20430;-74
2023/11/05 09:30:50;;;;;;;6.85;1.50;;;;;;;9.75;100.00;96865.44;4968211;28;20037;-73
2023/11/05 09:33:15;;;;;;;6.32;2.22;;;;;;;9.60;100.00;96848.25;4968023;28;20039;-74
2023/11/05 09:35:41;;;;;;;6.17;1.30;;;;;;;9.65;100.00;96888.25;4968372;28;20391;-73
2023/11/05 09:38:06;;;;;;;4.33;1.30;;;;;;;9.25;100.00;96885.94;4968009;28;20043;-73
2023/11/05 09:40:33;;;;;;;8.27;2.03;;;;;;;9.07;100.00;96895.81;4968051;28;20047;-73
2023/11/05 09:43:05;;;;;;;3.33;1.35;;;;;;;9.20;100.00;96936.44;4966871;28;20935;-73
2023/11/05 09:45:34;;;;;;;4.07;1.50;;;;;;;9.58;100.00;96958.75;4968192;28;20053;-73
2023/11/05 09:48:05;;;;;;;2.40;1.98;;;;;;;9.16;100.00;96893.56;4967396;28;20031;-73
2023/11/05 09:50:33;;;;;;;3.33;1.40;;;;;;;9.45;100.00;96947.41;4968809;28;20037;-73
2023/11/05 09:53:14;;;;;;;3.28;0.90;;;;;;;9.48;100.00;96928.28;4983803;28;20030;-73
2023/11/05 09:55:41;;;;;;;4.22;1.77;;;;;;;9.64;100.00;96939.09;4951925;28;20033;-74
2023/11/05 09:58:07;;;;;;;6.82;1.60;;;;;;;9.30;100.00;96910.75;4968764;28;20035;-73
2023/11/05 10:00:33;;;;;;;6.88;1.80;;;;;;;9.43;100.00;96935.38;4967846;28;20030;-73
2023/11/05 10:03:09;;;;;;;12.68;1.85;;;;;;;9.53;100.00;96930.19;4967778;28;20030;-73
2023/11/05 10:05:39;;;;;;;5.47;1.90;;;;;;;9.30;100.00;96904.63;4967621;28;20046;-73
2023/11/05 10:08:06;;;;;;;2.47;1.13;;;;;;;9.34;100.00;96936.88;4966854;28;20114;-73
2023/11/05 10:10:32;;;;;;;5.55;1.60;;;;;;;9.64;100.00;96963.84;4983829;28;20034;-72
2023/11/05 10:12:58;;;;;;;4.00;1.33;;;;;;;9.68;100.00;96956.19;4968963;28;20104;-73
2023/11/05 10:15:27;;;;;;;6.93;1.60;;;;;;;9.94;100.00;96971.38;4956768;28;20023;-74
2023/11/05 10:17:54;;;;;;;6.05;2.35;;;;;;;9.81;100.00;96925.69;4963599;28;20037;-73
2023/11/05 10:20:20;;;;;;;;;;;;;;;10.05;100.00;96953.66;4978421;28;20026;-73
2023/11/05 10:22:45;;;;;;;3.25;1.13;;;;;;;9.81;100.00;96913.19;4951731;28;19914;-74
2023/11/05 10:25:19;;;;;;;4.30;1.17;;;;;;;9.95;100.00;96937.56;4981924;28;20023;-73
2023/11/05 10:27:45;;;;;;;3.30;1.83;;;;;;;10.13;100.00;96933.72;4967363;28;20031;-74
2023/11/05 10:30:11;;;;;;;5.50;1.20;;;;;;;10.12;100.00;96927.59;4983491;28;20474;-73
2023/11/05 10:32:38;;;;;;;3.70;1.60;;;;;;;10.27;100.00;96928.78;4964218;28;20039;-73
2023/11/05 10:35:05;;;;;;;3.65;1.75;;;;;;;10.19;100.00;96898.09;4964350;28;20026;-74
2023/11/05 10:37:31;;;;;;;5.95;1.20;;;;;;;10.09;100.00;96890.81;4967041;28;20042;-73
2023/11/05 10:39:56;;;;;;;2.53;1.20;;;;;;;10.15;100.00;96910.31;4967224;28;20122;-73
2023/11/05 10:42:23;;;;;;;3.83;1.30;;;;;;;10.39;100.00;96915.31;4967140;28;20045;-73
2023/11/05 10:44:49;;;;;;;3.63;1.60;;;;;;;10.40;100.00;96906.28;4967444;28;20022;-73
2023/11/05 10:47:16;;;;;;;3.92;2.13;;;;;;;10.38;100.00;96903.06;4950866;28;20445;-73
2023/11/05 10:49:43;;;;;;;3.05;1.08;;;;;;;10.51;100.00;96908.78;4967308;28;20030;-73
2023/11/05 10:52:10;;;;;;;1.90;1.20;;;;;;;10.27;100.00;96907.47;4968152;28;20035;-73
2023/11/05 10:54:39;;;;;;;2.58;1.42;;;;;;;10.12;100.00;96898.28;4969979;28;20419;-74
2023/11/05 10:57:39;;;;;;;3.17;1.20;;;;;;;10.17;100.00;96902.06;4967774;28;20545;-73
2023/11/05 11:00:10;;;;;;;5.10;1.50;;;;;;;10.37;100.00;96931.56;4986699;28;20085;-73
2023/11/05 11:02:38;;;;;;;5.00;1.42;;;;;;;10.34;100.00;96918.75;4986789;28;20052;-74
2023/11/05 11:05:04;;;;;;;3.72;1.08;;;;;;;10.30;100.00;96901.66;4970432;28;20062;-73
2023/11/05 11:07:30;;;;;;;4.75;1.00;;;;;;;10.31;100.00;96916.59;4971480;28;20065;-73
2023/11/05 11:09:55;;;;;;;2.35;1.30;;;;;;;10.49;100.00;96942.09;4970329;28;20059;-73
2023/11/05 11:12:34;;;;;;;5.60;1.13;;;;;;;10.57;100.00;96958.41;4971538;28;20034;-72
2023/11/05 11:15:06;;;;;;;2.05;0.95;;;;;;;10.46;100.00;96947.91;4970430;28;20468;-73
2023/11/05 11:17:32;;;;;;;3.00;1.52;;;;;;;10.68;100.00;96998.50;4968521;28;20069;-73
2023/11/05 11:19:59;;;;;;;6.38;0.95;;;;;;;10.82;100.00;97005.03;4964557;28;20682;-73
2023/11/05 11:22:41;;;;;;;4.60;0.90;;;;;;;10.72;100.00;96996.94;4981601;28;20026;-74
2023/11/05 11:25:11;;;;;;;3.05;1.00;;;;;;;10.88;100.00;97006.66;4970178;28;20065;-73
2023/11/05 11:27:40;;;;;;;5.63;1.25;;;;;;;10.89;100.00;96999.47;4969705;28;20027;-73
2023/11/05 11:30:08;;;;;;;5.93;1.23;;;;;;;10.78;100.00;97025.25;4968479;28;20030;-73